Glenmont, Ohio
Current Conditions -  °F | °C
As of 1:56 PM on Sunday 23 Nov 2014 (Local Time) from K4I3 Reporting Station
Clear Clear  
Wind Chill: 61°   Ceiling: Unl
Heat Index: 61°   Visibility: 10mi
Dew Point: 41°   Wind: 9mph
Humidity: 48%   Direction: 130°SE
Pressure: 29.82"   Gusts: NA
Location:  40.52°N, 82.1°W
Report Text: K4I3 231856Z AUTO 13008KT 10SM CLR 16/05 A2982 RMK AO2
Loading
Personal Weather Stations






























Interactive Weather Map New forecast layout! Learn more

10-Day Weather Forecast

Advertisements
Track Severe Weather on mobile